Terminal Aerodrome Forecast
Issued by NWS

Home | Current Version | Previous Version | Text Only | Print | Product List | Glossary On
Versions: 1 2 3 4 5 6 7 8 9 10 11 12 13 14 15 16 17
000
FTUS41 KBTV 271128 AAA
TAFSLK
TAF AMD
KSLK 271128Z 2711/2812 05010KT P6SM OVC060
     FM271600 03004KT 3SM BR OVC020
     FM271800 02007KT 1/2SM FG BKN012 OVC030
     FM272200 02006KT 3/4SM BR BKN025 OVC030
     FM280000 02010KT 4SM -SN BR BKN020 OVC030
     FM280700 36008KT 6SM BR BKN040=

USA.gov is the U.S. government's official web portal to all federal, state and local government web resources and services.